createdAt,value
2019-06-10T00:00:33.569Z,48.50
2019-06-10T00:03:02.861Z,48.60
2019-06-10T00:05:31.180Z,48.70
2019-06-10T00:08:04.259Z,48.60
2019-06-10T00:10:33.221Z,48.50
2019-06-10T00:13:03.612Z,48.50
2019-06-10T00:15:31.380Z,48.40
2019-06-10T00:18:22.219Z,48.60
2019-06-10T00:20:30.624Z,48.60
2019-06-10T00:23:00.067Z,48.80
2019-06-10T00:25:28.296Z,49.00
2019-06-10T00:27:56.284Z,49.10
2019-06-10T00:30:24.289Z,49.30
2019-06-10T00:32:52.285Z,49.30
2019-06-10T00:35:21.087Z,49.40
2019-06-10T00:37:51.187Z,49.60
2019-06-10T00:40:21.314Z,49.70
2019-06-10T00:42:50.603Z,49.70
2019-06-10T00:45:18.257Z,49.80
2019-06-10T00:47:47.210Z,49.90
2019-06-10T00:50:16.748Z,50.00
2019-06-10T00:52:45.439Z,50.10
2019-06-10T00:55:13.918Z,50.20
2019-06-10T00:57:42.028Z,50.20
2019-06-10T01:00:23.105Z,50.00
2019-06-10T01:02:41.049Z,50.00
2019-06-10T01:05:12.464Z,50.00
2019-06-10T01:07:41.393Z,50.10
2019-06-10T01:10:13.143Z,50.10
2019-06-10T01:12:40.704Z,50.10
2019-06-10T01:15:12.532Z,50.00
2019-06-10T01:17:41.806Z,49.80
2019-06-10T01:20:14.367Z,49.90
2019-06-10T01:22:41.064Z,49.90
2019-06-10T01:25:12.404Z,50.00
2019-06-10T01:27:40.880Z,50.10
2019-06-10T01:30:16.660Z,50.00
2019-06-10T01:32:38.487Z,50.10
2019-06-10T01:35:06.615Z,50.10
2019-06-10T01:37:34.958Z,50.10
2019-06-10T01:40:04.066Z,50.00
2019-06-10T01:42:34.575Z,50.10
2019-06-10T01:45:02.399Z,50.20
2019-06-10T01:47:31.039Z,50.60
2019-06-10T01:50:00.739Z,50.20
2019-06-10T01:52:28.898Z,50.20
2019-06-10T01:54:56.900Z,50.30
2019-06-10T01:57:25.006Z,50.10
2019-06-10T01:59:55.928Z,50.10
2019-06-10T02:02:25.449Z,50.10
2019-06-10T02:04:54.840Z,50.20
2019-06-10T02:07:23.244Z,50.20
2019-06-10T02:09:51.727Z,50.20
2019-06-10T02:12:23.714Z,50.30
2019-06-10T02:14:50.926Z,50.50
2019-06-10T02:17:20.047Z,50.50
2019-06-10T02:19:50.736Z,50.50
2019-06-10T02:22:19.478Z,50.50
2019-06-10T02:24:50.547Z,50.60
2019-06-10T02:27:21.481Z,50.70
2019-06-10T02:29:50.692Z,50.70
2019-06-10T02:32:30.769Z,51.00
2019-06-10T02:35:03.748Z,51.20
2019-06-10T02:37:25.536Z,51.40
2019-06-10T02:39:51.416Z,51.60
2019-06-10T02:42:29.721Z,51.90
2019-06-10T02:44:54.080Z,52.10
2019-06-10T02:47:24.595Z,52.30
2019-06-10T02:49:59.043Z,52.70
2019-06-10T02:52:31.473Z,52.90
2019-06-10T02:54:53.583Z,53.00
2019-06-10T02:57:31.932Z,53.10
2019-06-10T02:59:54.326Z,53.20
2019-06-10T03:02:23.750Z,53.30
2019-06-10T03:04:53.543Z,53.50
2019-06-10T03:07:28.142Z,53.70
2019-06-10T03:09:53.728Z,53.90
2019-06-10T03:12:24.270Z,53.90
2019-06-10T03:14:52.590Z,54.00
2019-06-10T03:17:24.804Z,54.10
2019-06-10T03:19:53.613Z,54.90
2019-06-10T03:22:23.006Z,54.40
2019-06-10T03:24:52.390Z,54.50
2019-06-10T03:27:21.140Z,54.70
2019-06-10T03:29:52.561Z,54.90
2019-06-10T03:32:23.165Z,55.30
2019-06-10T03:34:49.473Z,55.70
2019-06-10T03:37:18.371Z,55.90
2019-06-10T03:39:46.352Z,56.20
2019-06-10T03:42:15.258Z,56.70
2019-06-10T03:44:43.336Z,56.90
2019-06-10T03:47:12.189Z,57.40
2019-06-10T03:49:49.942Z,57.60
2019-06-10T03:52:10.193Z,57.80
2019-06-10T03:54:38.060Z,57.80
2019-06-10T03:57:05.916Z,57.80
2019-06-10T03:59:33.819Z,57.70
2019-06-10T04:02:02.326Z,57.90
2019-06-10T04:04:32.642Z,57.90
2019-06-10T04:07:03.784Z,58.00
2019-06-10T04:09:33.066Z,57.90
2019-06-10T04:12:02.068Z,57.70
2019-06-10T04:14:30.076Z,57.80
2019-06-10T04:16:57.962Z,57.60
2019-06-10T04:19:27.440Z,57.20
2019-06-10T04:21:57.305Z,57.10
2019-06-10T04:24:25.772Z,57.10
2019-06-10T04:26:54.959Z,56.90
2019-06-10T04:29:25.436Z,56.70
2019-06-10T04:31:52.669Z,56.10
2019-06-10T04:34:23.756Z,56.50
2019-06-10T04:36:52.430Z,55.90
2019-06-10T04:39:20.509Z,56.10
2019-06-10T04:41:52.918Z,55.90
2019-06-10T04:44:22.876Z,55.60
2019-06-10T04:46:51.972Z,55.70
2019-06-10T04:49:21.373Z,55.60
2019-06-10T04:51:52.367Z,55.70
2019-06-10T04:54:21.385Z,55.00
2019-06-10T04:56:49.711Z,55.10
2019-06-10T04:59:18.772Z,54.90
2019-06-10T05:01:46.940Z,54.70
2019-06-10T05:04:15.967Z,54.30
2019-06-10T05:06:44.045Z,54.40
2019-06-10T05:09:12.530Z,54.20
2019-06-10T05:11:42.824Z,54.10
2019-06-10T05:14:13.206Z,53.70
2019-06-10T05:16:42.876Z,53.60
2019-06-10T05:19:12.886Z,53.50
2019-06-10T05:21:42.331Z,53.50
2019-06-10T05:24:12.441Z,53.30
2019-06-10T05:26:42.017Z,52.80
2019-06-10T05:29:11.934Z,52.90
2019-06-10T05:31:39.582Z,52.70
2019-06-10T05:34:09.100Z,52.70
2019-06-10T05:36:37.047Z,52.60
2019-06-10T05:39:06.398Z,52.60
2019-06-10T05:41:35.245Z,52.70
2019-06-10T05:44:04.398Z,52.80
2019-06-10T05:46:34.706Z,53.10
2019-06-10T05:49:03.076Z,53.60
2019-06-10T05:51:33.791Z,53.60
2019-06-10T05:54:02.188Z,54.50
2019-06-10T05:56:33.777Z,54.30
2019-06-10T05:59:02.261Z,54.70
2019-06-10T06:01:29.714Z,54.70
2019-06-10T06:03:59.662Z,55.10
2019-06-10T06:06:29.179Z,55.10
2019-06-10T06:08:57.655Z,55.00
2019-06-10T06:11:27.307Z,55.00
2019-06-10T06:13:55.672Z,54.00
2019-06-10T06:16:25.630Z,54.20
2019-06-10T06:18:53.992Z,54.40
2019-06-10T06:21:29.187Z,54.30
2019-06-10T06:23:53.345Z,54.40
2019-06-10T06:26:23.553Z,54.40
2019-06-10T06:28:53.272Z,54.40
2019-06-10T06:31:23.017Z,54.90
2019-06-10T06:33:52.640Z,55.20
2019-06-10T06:36:22.621Z,55.00
2019-06-10T06:38:52.858Z,54.50
2019-06-10T06:41:22.603Z,52.50
2019-06-10T06:43:52.781Z,49.10
2019-06-10T06:46:23.122Z,45.90
2019-06-10T06:48:52.937Z,44.80
2019-06-10T06:51:33.643Z,43.60
2019-06-10T06:53:53.038Z,41.70
2019-06-10T06:56:19.163Z,41.00
2019-06-10T06:58:48.494Z,40.80
2019-06-10T07:01:16.644Z,41.10
2019-06-10T07:03:45.240Z,41.40
2019-06-10T07:06:13.529Z,41.40
2019-06-10T07:08:43.549Z,42.10
2019-06-10T07:11:13.273Z,42.90
2019-06-10T07:13:45.650Z,44.00
2019-06-10T07:16:13.142Z,44.80
2019-06-10T07:18:46.381Z,46.10
2019-06-10T07:21:13.120Z,47.20
2019-06-10T07:23:45.138Z,48.40
2019-06-10T07:26:12.615Z,49.00
2019-06-10T07:28:44.500Z,49.10
2019-06-10T07:31:20.839Z,49.70
2019-06-10T07:33:47.633Z,49.60
2019-06-10T07:36:15.844Z,49.60
2019-06-10T07:38:48.781Z,48.20
2019-06-10T07:41:13.946Z,46.60
2019-06-10T07:43:47.535Z,44.10
2019-06-10T07:46:13.372Z,41.70
2019-06-10T07:48:46.201Z,38.90
2019-06-10T07:51:13.112Z,36.20
2019-06-10T07:53:44.621Z,34.30
2019-06-10T07:56:12.909Z,34.20
2019-06-10T07:58:44.493Z,35.60
2019-06-10T08:01:12.871Z,37.80
2019-06-10T08:03:40.127Z,39.90
2019-06-10T08:06:08.179Z,42.10
2019-06-10T08:08:36.831Z,44.20
2019-06-10T08:11:05.009Z,43.20
2019-06-10T08:13:33.093Z,39.90
2019-06-10T08:16:02.841Z,37.60
2019-06-10T08:18:38.431Z,36.40
2019-06-10T08:21:02.920Z,36.20
2019-06-10T08:23:32.681Z,34.80
2019-06-10T08:26:03.169Z,34.20
2019-06-10T08:28:30.117Z,32.30
2019-06-10T08:30:58.554Z,30.30
2019-06-10T08:33:26.951Z,29.40
2019-06-10T08:35:59.374Z,29.20
2019-06-10T08:38:24.956Z,28.90
2019-06-10T08:40:53.044Z,28.80
2019-06-10T08:43:22.607Z,28.60
2019-06-10T08:45:52.909Z,28.10
2019-06-10T08:48:22.768Z,27.20
2019-06-10T08:50:53.132Z,26.00
2019-06-10T08:53:22.761Z,25.50
2019-06-10T08:55:53.422Z,25.50
2019-06-10T08:58:23.070Z,25.10
2019-06-10T09:00:53.673Z,25.20
2019-06-10T09:03:23.403Z,24.60
2019-06-10T09:05:54.527Z,24.30
2019-06-10T09:08:23.511Z,24.30
2019-06-10T09:10:54.959Z,24.50
2019-06-10T09:13:22.657Z,23.50
2019-06-10T09:16:09.774Z,23.50
2019-06-10T09:18:25.435Z,23.30
2019-06-10T09:20:56.211Z,23.00
2019-06-10T09:23:25.673Z,22.80
2019-06-10T09:25:57.272Z,22.60
2019-06-10T09:28:24.651Z,22.80
2019-06-10T09:30:58.879Z,22.80
2019-06-10T09:33:23.136Z,23.00
2019-06-10T09:35:54.925Z,23.00
2019-06-10T09:38:23.230Z,23.30
2019-06-10T09:41:00.697Z,23.30
2019-06-10T09:43:24.181Z,23.10
2019-06-10T09:45:56.242Z,23.50
2019-06-10T09:48:23.128Z,23.70
2019-06-10T09:50:57.947Z,25.00
2019-06-10T09:53:33.893Z,26.80
2019-06-10T09:55:55.596Z,28.90
2019-06-10T09:58:24.212Z,29.20
2019-06-10T10:00:58.235Z,27.90
2019-06-10T10:03:27.395Z,26.80
2019-06-10T10:06:09.805Z,25.50
2019-06-10T10:08:26.006Z,24.50
2019-06-10T10:10:58.801Z,23.80
2019-06-10T10:13:24.583Z,23.30
2019-06-10T10:15:54.303Z,23.40
2019-06-10T10:18:24.560Z,23.80
2019-06-10T10:20:58.424Z,23.70
2019-06-10T10:23:22.981Z,24.10
2019-06-10T10:25:56.276Z,24.30
2019-06-10T10:28:23.026Z,24.40
2019-06-10T10:30:57.110Z,24.10
2019-06-10T10:33:26.830Z,24.50
2019-06-10T10:35:52.923Z,24.00
2019-06-10T10:38:22.900Z,24.10
2019-06-10T10:40:57.891Z,24.50
2019-06-10T10:43:28.990Z,25.50
2019-06-10T10:45:59.665Z,26.70
2019-06-10T10:48:23.080Z,28.60
2019-06-10T10:50:56.105Z,30.60
2019-06-10T10:53:26.088Z,32.40
2019-06-10T10:55:55.654Z,33.80
2019-06-10T10:58:24.007Z,34.40
2019-06-10T11:00:56.502Z,36.50
2019-06-10T11:03:24.107Z,37.90
2019-06-10T11:06:00.542Z,38.70
2019-06-10T11:08:23.002Z,39.50
2019-06-10T11:10:55.498Z,38.90
2019-06-10T11:13:22.264Z,38.50
2019-06-10T11:15:54.717Z,38.10
2019-06-10T11:18:22.758Z,39.00
2019-06-10T11:20:51.958Z,38.50
2019-06-10T11:23:22.677Z,38.60
2019-06-10T11:25:53.309Z,38.90
2019-06-10T11:28:22.645Z,39.80
2019-06-10T11:30:52.698Z,39.90
2019-06-10T11:33:22.752Z,40.30
2019-06-10T11:35:53.625Z,40.70
2019-06-10T11:38:23.280Z,41.50
2019-06-10T11:40:54.687Z,41.50
2019-06-10T11:43:22.628Z,42.00
2019-06-10T11:45:56.864Z,42.50
2019-06-10T11:48:23.919Z,43.10
2019-06-10T11:50:56.752Z,43.50
2019-06-10T11:53:24.586Z,43.50
2019-06-10T11:55:55.880Z,44.20
2019-06-10T11:58:25.307Z,44.30
2019-06-10T12:00:57.062Z,44.30
2019-06-10T12:03:24.106Z,44.40
2019-06-10T12:05:55.549Z,44.10
2019-06-10T12:08:23.612Z,44.00
2019-06-10T12:10:58.294Z,44.70
2019-06-10T12:13:22.753Z,44.50
2019-06-10T12:16:34.998Z,42.90
2019-06-10T12:18:22.952Z,43.10
2019-06-10T12:20:57.568Z,43.50
2019-06-10T12:23:23.753Z,43.50
2019-06-10T12:25:54.448Z,43.70
2019-06-10T12:28:22.534Z,43.80
2019-06-10T12:30:57.397Z,43.10
2019-06-10T12:33:25.212Z,42.60
2019-06-10T12:35:54.380Z,42.30
2019-06-10T12:38:22.689Z,41.50
2019-06-10T12:40:52.510Z,40.80
2019-06-10T12:43:23.249Z,40.60
2019-06-10T12:45:53.016Z,40.70
2019-06-10T12:48:22.300Z,40.80
2019-06-10T12:50:52.783Z,41.30
2019-06-10T12:53:22.889Z,41.90
2019-06-10T12:55:53.622Z,42.00
2019-06-10T12:58:22.644Z,42.10
2019-06-10T13:00:53.246Z,42.20
2019-06-10T13:03:23.457Z,42.60
2019-06-10T13:05:53.143Z,42.10
2019-06-10T13:08:23.959Z,40.90
2019-06-10T13:10:53.330Z,39.10
2019-06-10T13:13:22.908Z,39.90
2019-06-10T13:15:54.052Z,40.90
2019-06-10T13:18:25.062Z,40.70
2019-06-10T13:20:53.987Z,40.90
2019-06-10T13:23:29.035Z,41.70
2019-06-10T13:25:58.792Z,41.30
2019-06-10T13:28:23.115Z,41.20
2019-06-10T13:30:54.469Z,42.00
2019-06-10T13:33:22.945Z,41.30
2019-06-10T13:35:53.519Z,41.20
2019-06-10T13:38:22.781Z,41.40
2019-06-10T13:40:53.263Z,41.40
2019-06-10T13:43:23.126Z,40.60
2019-06-10T13:45:53.257Z,40.60
2019-06-10T13:48:23.320Z,40.80
2019-06-10T13:50:52.822Z,41.00
2019-06-10T13:53:23.227Z,41.30
2019-06-10T13:56:02.677Z,41.60
2019-06-10T13:58:22.982Z,42.10
2019-06-10T14:00:53.622Z,42.30
2019-06-10T14:03:22.997Z,42.50
2019-06-10T14:05:58.626Z,42.80
2019-06-10T14:08:23.336Z,42.30
2019-06-10T14:10:54.101Z,42.00
2019-06-10T14:13:23.842Z,41.50
2019-06-10T14:15:54.543Z,41.70
2019-06-10T14:18:23.071Z,41.70
2019-06-10T14:20:53.304Z,40.80
2019-06-10T14:23:22.294Z,40.10
2019-06-10T14:25:52.607Z,39.40
2019-06-10T14:28:38.048Z,38.70
2019-06-10T14:30:53.738Z,39.50
2019-06-10T14:33:23.278Z,40.30
2019-06-10T14:35:53.461Z,40.40
2019-06-10T14:38:24.078Z,40.50
2019-06-10T14:40:52.778Z,40.30
2019-06-10T14:43:23.134Z,40.10
2019-06-10T14:45:53.608Z,40.30
2019-06-10T14:48:25.037Z,40.20
2019-06-10T14:50:53.478Z,40.40
2019-06-10T14:53:23.238Z,41.10
2019-06-10T14:55:53.263Z,41.30
2019-06-10T14:58:23.120Z,41.80
2019-06-10T15:00:54.430Z,41.70
2019-06-10T15:03:22.133Z,41.50
2019-06-10T15:05:52.684Z,41.10
2019-06-10T15:08:22.822Z,40.80
2019-06-10T15:10:52.774Z,40.40
2019-06-10T15:13:23.498Z,40.40
2019-06-10T15:15:53.370Z,40.70
2019-06-10T15:18:23.876Z,40.90
2019-06-10T15:20:53.468Z,41.30
2019-06-10T15:23:23.531Z,42.10
2019-06-10T15:25:56.962Z,42.30
2019-06-10T15:28:24.574Z,41.20
2019-06-10T15:30:52.996Z,40.80
2019-06-10T15:33:24.034Z,40.70
2019-06-10T15:35:55.198Z,40.40
2019-06-10T15:38:23.555Z,40.90
2019-06-10T15:40:53.218Z,41.80
2019-06-10T15:43:23.383Z,41.80
2019-06-10T15:45:56.339Z,42.20
2019-06-10T15:48:25.599Z,42.60
2019-06-10T15:50:55.896Z,42.70
2019-06-10T15:53:25.873Z,42.80
2019-06-10T15:56:17.988Z,42.60
2019-06-10T15:58:26.030Z,42.50
2019-06-10T16:00:54.871Z,42.80
2019-06-10T16:03:25.642Z,42.50
2019-06-10T16:05:58.669Z,42.80
2019-06-10T16:08:27.985Z,42.90
2019-06-10T16:10:56.363Z,43.40
2019-06-10T16:13:26.002Z,43.90
2019-06-10T16:15:55.716Z,44.20
2019-06-10T16:18:28.662Z,44.30
2019-06-10T16:20:56.546Z,44.40
2019-06-10T16:23:26.656Z,44.60
2019-06-10T16:25:54.739Z,44.60
2019-06-10T16:28:24.737Z,44.50
2019-06-10T16:30:53.847Z,44.30
2019-06-10T16:33:25.991Z,44.30
2019-06-10T16:35:53.208Z,44.60
2019-06-10T16:38:23.788Z,44.60
2019-06-10T16:40:53.718Z,44.70
2019-06-10T16:43:24.143Z,44.80
2019-06-10T16:45:52.527Z,45.10
2019-06-10T16:48:21.519Z,45.70
2019-06-10T16:50:53.818Z,45.50
2019-06-10T16:53:22.949Z,46.00
2019-06-10T16:55:52.733Z,46.30
2019-06-10T16:58:21.150Z,46.10
2019-06-10T17:00:49.475Z,46.00
2019-06-10T17:03:18.349Z,46.00
2019-06-10T17:05:46.642Z,46.00
2019-06-10T17:08:14.455Z,45.80
2019-06-10T17:10:43.561Z,45.70
2019-06-10T17:13:13.310Z,46.10
2019-06-10T17:15:42.364Z,46.20
2019-06-10T17:18:12.960Z,46.60
2019-06-10T17:20:42.954Z,47.20
2019-06-10T17:23:26.375Z,47.30
2019-06-10T17:25:53.669Z,47.10
2019-06-10T17:28:25.634Z,47.50
2019-06-10T17:30:53.023Z,47.70
2019-06-10T17:33:22.860Z,47.70
2019-06-10T17:35:52.432Z,48.00
2019-06-10T17:38:20.874Z,48.30
2019-06-10T17:40:49.041Z,48.30
2019-06-10T17:43:17.337Z,48.50
2019-06-10T17:45:45.580Z,48.60
2019-06-10T17:48:13.739Z,48.90
2019-06-10T17:50:42.880Z,49.00
2019-06-10T17:53:12.705Z,48.90
2019-06-10T17:55:41.983Z,49.10
2019-06-10T17:58:12.959Z,49.30
2019-06-10T18:00:42.066Z,49.50
2019-06-10T18:03:13.042Z,49.70
2019-06-10T18:05:42.504Z,49.80
2019-06-10T18:08:12.946Z,50.00
2019-06-10T18:10:43.764Z,50.00
2019-06-10T18:13:16.302Z,50.20
2019-06-10T18:15:41.926Z,50.50
2019-06-10T18:18:12.841Z,50.70
2019-06-10T18:20:40.102Z,50.90
2019-06-10T18:23:08.253Z,51.20
2019-06-10T18:25:36.884Z,51.70
2019-06-10T18:28:05.249Z,52.00
2019-06-10T18:30:36.386Z,52.20
2019-06-10T18:33:04.792Z,52.40
2019-06-10T18:35:34.783Z,52.70
2019-06-10T18:38:06.401Z,53.00
2019-06-10T18:40:35.652Z,53.50
2019-06-10T18:43:04.212Z,53.80
2019-06-10T18:45:36.016Z,53.80
2019-06-10T18:48:02.877Z,54.60
2019-06-10T18:50:33.412Z,54.20
2019-06-10T18:53:03.960Z,54.40
2019-06-10T18:55:35.961Z,54.60
2019-06-10T18:58:02.473Z,54.70
2019-06-10T19:00:51.836Z,54.80
2019-06-10T19:03:10.453Z,54.90
2019-06-10T19:05:31.084Z,55.30
2019-06-10T19:08:02.299Z,55.50
2019-06-10T19:10:29.447Z,55.70
2019-06-10T19:12:57.398Z,55.90
2019-06-10T19:15:27.177Z,56.20
2019-06-10T19:17:55.259Z,56.10
2019-06-10T19:20:23.537Z,56.60
2019-06-10T19:22:53.964Z,57.00
2019-06-10T19:25:22.115Z,57.30
2019-06-10T19:27:53.161Z,57.50
2019-06-10T19:30:23.284Z,57.50
2019-06-10T19:32:52.816Z,57.50
2019-06-10T19:35:23.694Z,58.10
2019-06-10T19:37:51.815Z,58.00
2019-06-10T19:40:19.854Z,58.50
2019-06-10T19:42:47.960Z,58.40
2019-06-10T19:45:16.604Z,58.90
2019-06-10T19:47:45.784Z,59.20
2019-06-10T19:50:14.566Z,59.50
2019-06-10T19:52:45.490Z,59.70
2019-06-10T19:55:15.357Z,59.90
2019-06-10T19:57:44.062Z,59.80
2019-06-10T20:00:15.608Z,60.00
2019-06-10T20:02:46.531Z,61.20
2019-06-10T20:05:15.503Z,60.30
2019-06-10T20:07:48.431Z,60.50
2019-06-10T20:10:13.775Z,60.80
2019-06-10T20:12:44.832Z,60.90
2019-06-10T20:15:22.397Z,61.10
2019-06-10T20:17:52.347Z,61.10
2019-06-10T20:20:22.321Z,61.30
2019-06-10T20:22:49.563Z,61.50
2019-06-10T20:25:17.992Z,61.40
2019-06-10T20:27:46.168Z,61.50
2019-06-10T20:30:24.401Z,61.70
2019-06-10T20:32:46.481Z,61.70
2019-06-10T20:35:14.331Z,62.80
2019-06-10T20:37:44.636Z,62.30
2019-06-10T20:40:15.521Z,62.10
2019-06-10T20:42:44.913Z,62.10
2019-06-10T20:45:13.207Z,62.40
2019-06-10T20:47:44.595Z,62.70
2019-06-10T20:50:13.094Z,62.80
2019-06-10T20:52:44.224Z,63.00
2019-06-10T20:55:12.737Z,63.40
2019-06-10T20:57:52.099Z,63.60
2019-06-10T21:00:22.132Z,63.90
2019-06-10T21:02:45.901Z,64.00
2019-06-10T21:05:16.407Z,64.00
2019-06-10T21:07:46.834Z,64.30
2019-06-10T21:10:16.969Z,64.60
2019-06-10T21:12:46.752Z,64.60
2019-06-10T21:15:14.790Z,64.50
2019-06-10T21:17:44.814Z,64.70
2019-06-10T21:20:12.872Z,64.80
2019-06-10T21:22:44.234Z,65.30
2019-06-10T21:25:14.003Z,64.90
2019-06-10T21:27:44.664Z,65.80
2019-06-10T21:30:11.946Z,64.70
2019-06-10T21:32:41.684Z,64.70
2019-06-10T21:35:11.977Z,64.70
2019-06-10T21:37:39.549Z,65.10
2019-06-10T21:40:12.647Z,65.40
2019-06-10T21:42:40.067Z,65.70
2019-06-10T21:45:09.412Z,65.60
2019-06-10T21:47:38.309Z,65.60
2019-06-10T21:50:06.243Z,66.00
2019-06-10T21:52:34.511Z,66.10
2019-06-10T21:55:06.059Z,66.30
2019-06-10T21:57:37.330Z,66.00
2019-06-10T22:00:13.978Z,66.40
2019-06-10T22:02:42.752Z,65.90
2019-06-10T22:05:12.370Z,65.60
2019-06-10T22:07:42.291Z,65.60
2019-06-10T22:10:12.827Z,65.20
2019-06-10T22:12:42.163Z,65.10
2019-06-10T22:15:12.476Z,65.40
2019-06-10T22:17:42.298Z,66.00
2019-06-10T22:20:12.523Z,66.00
2019-06-10T22:22:42.713Z,66.30
2019-06-10T22:25:13.005Z,66.00
2019-06-10T22:27:42.104Z,65.80
2019-06-10T22:30:11.749Z,66.10
2019-06-10T22:32:40.045Z,65.50
2019-06-10T22:35:08.597Z,65.50
2019-06-10T22:37:36.696Z,65.50
2019-06-10T22:40:06.814Z,65.80
2019-06-10T22:42:37.527Z,65.30
2019-06-10T22:45:07.182Z,64.90
2019-06-10T22:47:35.465Z,64.90
2019-06-10T22:50:07.251Z,64.70
2019-06-10T22:52:34.203Z,64.60
2019-06-10T22:55:03.437Z,64.60
2019-06-10T22:57:31.764Z,64.50
2019-06-10T23:00:02.911Z,64.30
2019-06-10T23:02:30.394Z,64.90
2019-06-10T23:05:05.127Z,64.20
2019-06-10T23:07:32.976Z,64.20
2019-06-10T23:10:03.092Z,64.30
2019-06-10T23:12:30.351Z,64.10
2019-06-10T23:14:59.344Z,64.20
2019-06-10T23:17:27.457Z,64.20
2019-06-10T23:19:56.860Z,64.20
2019-06-10T23:22:25.091Z,64.90
2019-06-10T23:24:53.599Z,64.30
2019-06-10T23:27:23.364Z,64.50
2019-06-10T23:29:53.931Z,64.60
2019-06-10T23:32:22.191Z,64.80
2019-06-10T23:34:54.065Z,65.00
2019-06-10T23:37:22.811Z,65.90
2019-06-10T23:39:50.643Z,65.40
2019-06-10T23:42:18.712Z,65.60
2019-06-10T23:44:46.560Z,65.60
2019-06-10T23:47:14.464Z,65.80
2019-06-10T23:49:42.474Z,66.00
2019-06-10T23:52:12.800Z,65.90
2019-06-10T23:54:41.243Z,66.40
2019-06-10T23:57:09.160Z,66.80
2019-06-10T23:59:37.101Z,66.90
